sensor_id;sensor_type;location;lat;lon;timestamp;pressure;altitude;pressure_sealevel;temperature;humidity
65394;BME280;52002;49.760;6.512;2023-07-13T00:00:27;100038.85;;;16.71;57.86
65394;BME280;52002;49.760;6.512;2023-07-13T00:02:53;100039.11;;;16.72;57.97
65394;BME280;52002;49.760;6.512;2023-07-13T00:05:22;100037.27;;;16.75;58.24
65394;BME280;52002;49.760;6.512;2023-07-13T00:07:49;100038.09;;;16.81;58.59
65394;BME280;52002;49.760;6.512;2023-07-13T00:10:14;100044.48;;;16.85;58.34
65394;BME280;52002;49.760;6.512;2023-07-13T00:12:40;100037.00;;;16.84;58.33
65394;BME280;52002;49.760;6.512;2023-07-13T00:15:12;100032.04;;;16.83;58.57
65394;BME280;52002;49.760;6.512;2023-07-13T00:17:39;100032.92;;;16.83;58.59
65394;BME280;52002;49.760;6.512;2023-07-13T00:20:05;100035.59;;;16.82;58.58
65394;BME280;52002;49.760;6.512;2023-07-13T00:22:32;100032.16;;;16.81;58.69
65394;BME280;52002;49.760;6.512;2023-07-13T00:24:57;100031.86;;;16.80;58.45
65394;BME280;52002;49.760;6.512;2023-07-13T00:27:24;100028.80;;;16.77;58.40
65394;BME280;52002;49.760;6.512;2023-07-13T00:29:52;100024.38;;;16.80;58.88
65394;BME280;52002;49.760;6.512;2023-07-13T00:32:18;100022.30;;;16.82;58.57
65394;BME280;52002;49.760;6.512;2023-07-13T00:34:43;100019.67;;;16.83;58.59
65394;BME280;52002;49.760;6.512;2023-07-13T00:37:08;100019.30;;;16.83;58.32
65394;BME280;52002;49.760;6.512;2023-07-13T00:39:34;100008.94;;;16.77;58.36
65394;BME280;52002;49.760;6.512;2023-07-13T00:42:01;100008.08;;;16.72;58.80
65394;BME280;52002;49.760;6.512;2023-07-13T00:44:26;100009.41;;;16.76;59.06
65394;BME280;52002;49.760;6.512;2023-07-13T00:46:52;100011.23;;;16.81;59.12
65394;BME280;52002;49.760;6.512;2023-07-13T00:49:22;100010.33;;;16.83;58.82
65394;BME280;52002;49.760;6.512;2023-07-13T00:51:52;100012.73;;;16.86;58.92
65394;BME280;52002;49.760;6.512;2023-07-13T00:54:26;100011.60;;;16.88;58.81
65394;BME280;52002;49.760;6.512;2023-07-13T00:56:58;100017.36;;;16.90;58.76
65394;BME280;52002;49.760;6.512;2023-07-13T00:59:24;100012.77;;;16.91;59.12
65394;BME280;52002;49.760;6.512;2023-07-13T01:01:50;100013.15;;;16.92;59.08
65394;BME280;52002;49.760;6.512;2023-07-13T01:04:17;100011.96;;;16.94;59.06
65394;BME280;52002;49.760;6.512;2023-07-13T01:06:43;100015.89;;;16.98;59.12
65394;BME280;52002;49.760;6.512;2023-07-13T01:09:10;100015.81;;;17.02;59.12
65394;BME280;52002;49.760;6.512;2023-07-13T01:11:37;100016.25;;;17.04;58.96
65394;BME280;52002;49.760;6.512;2023-07-13T01:14:03;100019.80;;;17.03;58.97
65394;BME280;52002;49.760;6.512;2023-07-13T01:16:31;100019.24;;;17.05;59.10
65394;BME280;52002;49.760;6.512;2023-07-13T01:18:57;100022.59;;;17.04;58.86
65394;BME280;52002;49.760;6.512;2023-07-13T01:21:24;100023.64;;;17.02;58.81
65394;BME280;52002;49.760;6.512;2023-07-13T01:23:50;100024.45;;;17.02;58.96
65394;BME280;52002;49.760;6.512;2023-07-13T01:26:16;100028.11;;;16.99;58.90
65394;BME280;52002;49.760;6.512;2023-07-13T01:28:41;100035.50;;;16.96;58.96
65394;BME280;52002;49.760;6.512;2023-07-13T01:31:07;100038.26;;;16.94;59.07
65394;BME280;52002;49.760;6.512;2023-07-13T01:33:34;100040.39;;;16.94;59.14
65394;BME280;52002;49.760;6.512;2023-07-13T01:36:24;100043.11;;;16.97;59.54
65394;BME280;52002;49.760;6.512;2023-07-13T01:38:50;100045.42;;;17.00;59.53
65394;BME280;52002;49.760;6.512;2023-07-13T01:41:16;100049.80;;;17.02;59.33
65394;BME280;52002;49.760;6.512;2023-07-13T01:43:41;100044.48;;;17.01;59.30
65394;BME280;52002;49.760;6.512;2023-07-13T01:46:06;100047.68;;;17.01;59.21
65394;BME280;52002;49.760;6.512;2023-07-13T01:48:32;100044.95;;;17.03;59.39
65394;BME280;52002;49.760;6.512;2023-07-13T01:50:57;100046.89;;;17.05;59.46
65394;BME280;52002;49.760;6.512;2023-07-13T01:53:22;100051.71;;;17.05;59.39
65394;BME280;52002;49.760;6.512;2023-07-13T01:55:48;100052.08;;;17.05;59.17
65394;BME280;52002;49.760;6.512;2023-07-13T01:58:13;100050.82;;;17.02;59.20
65394;BME280;52002;49.760;6.512;2023-07-13T02:00:39;100054.30;;;17.00;59.75
65394;BME280;52002;49.760;6.512;2023-07-13T02:05:39;100054.05;;;17.07;59.73
65394;BME280;52002;49.760;6.512;2023-07-13T02:08:04;100057.58;;;17.09;59.66
65394;BME280;52002;49.760;6.512;2023-07-13T02:10:30;100063.94;;;17.11;59.41
65394;BME280;52002;49.760;6.512;2023-07-13T02:12:55;100064.92;;;17.11;59.00
65394;BME280;52002;49.760;6.512;2023-07-13T02:15:20;100062.80;;;17.09;58.99
65394;BME280;52002;49.760;6.512;2023-07-13T02:17:46;100062.63;;;17.10;59.31
65394;BME280;52002;49.760;6.512;2023-07-13T02:20:11;100064.58;;;17.10;59.41
65394;BME280;52002;49.760;6.512;2023-07-13T02:22:37;100065.36;;;17.12;59.59
65394;BME280;52002;49.760;6.512;2023-07-13T02:25:02;100067.90;;;17.13;59.82
65394;BME280;52002;49.760;6.512;2023-07-13T02:27:28;100071.14;;;17.13;59.67
65394;BME280;52002;49.760;6.512;2023-07-13T02:29:53;100075.09;;;17.10;59.89
65394;BME280;52002;49.760;6.512;2023-07-13T02:32:19;100076.67;;;17.10;60.07
65394;BME280;52002;49.760;6.512;2023-07-13T02:34:44;100075.48;;;17.11;60.24
65394;BME280;52002;49.760;6.512;2023-07-13T02:37:10;100076.69;;;17.10;60.26
65394;BME280;52002;49.760;6.512;2023-07-13T02:39:35;100072.49;;;17.07;60.41
65394;BME280;52002;49.760;6.512;2023-07-13T02:42:01;100068.75;;;17.07;60.44
65394;BME280;52002;49.760;6.512;2023-07-13T02:44:27;100067.48;;;17.04;60.46
65394;BME280;52002;49.760;6.512;2023-07-13T02:46:52;100067.35;;;17.02;60.48
65394;BME280;52002;49.760;6.512;2023-07-13T02:49:18;100061.95;;;16.99;60.62
65394;BME280;52002;49.760;6.512;2023-07-13T02:51:43;100060.60;;;16.95;60.68
65394;BME280;52002;49.760;6.512;2023-07-13T02:54:09;100063.41;;;16.91;60.59
65394;BME280;52002;49.760;6.512;2023-07-13T02:56:34;100063.48;;;16.85;60.67
65394;BME280;52002;49.760;6.512;2023-07-13T02:58:59;100061.60;;;16.84;61.17
65394;BME280;52002;49.760;6.512;2023-07-13T03:01:25;100060.91;;;16.86;61.27
65394;BME280;52002;49.760;6.512;2023-07-13T03:03:51;100061.42;;;16.86;61.43
65394;BME280;52002;49.760;6.512;2023-07-13T03:06:17;100060.23;;;16.85;61.45
65394;BME280;52002;49.760;6.512;2023-07-13T03:08:44;100060.68;;;16.86;61.68
65394;BME280;52002;49.760;6.512;2023-07-13T03:11:13;100065.79;;;16.89;61.85
65394;BME280;52002;49.760;6.512;2023-07-13T03:13:40;100070.11;;;16.89;61.87
65394;BME280;52002;49.760;6.512;2023-07-13T03:16:06;100068.65;;;16.89;61.81
65394;BME280;52002;49.760;6.512;2023-07-13T03:18:32;100068.36;;;16.85;61.79
65394;BME280;52002;49.760;6.512;2023-07-13T03:20:58;100072.27;;;16.81;61.92
65394;BME280;52002;49.760;6.512;2023-07-13T03:23:24;100080.98;;;16.75;61.95
65394;BME280;52002;49.760;6.512;2023-07-13T03:25:50;100086.20;;;16.70;62.11
65394;BME280;52002;49.760;6.512;2023-07-13T03:28:16;100095.75;;;16.65;62.12
65394;BME280;52002;49.760;6.512;2023-07-13T03:30:41;100091.29;;;16.59;62.13
65394;BME280;52002;49.760;6.512;2023-07-13T03:33:07;100090.98;;;16.51;62.25
65394;BME280;52002;49.760;6.512;2023-07-13T03:35:34;100093.02;;;16.45;62.37
65394;BME280;52002;49.760;6.512;2023-07-13T03:38:00;100086.63;;;16.39;62.45
65394;BME280;52002;49.760;6.512;2023-07-13T03:40:26;100088.10;;;16.36;62.57
65394;BME280;52002;49.760;6.512;2023-07-13T03:42:52;100090.70;;;16.34;62.91
65394;BME280;52002;49.760;6.512;2023-07-13T03:45:18;100095.84;;;16.34;62.80
65394;BME280;52002;49.760;6.512;2023-07-13T03:47:44;100099.15;;;16.32;62.88
65394;BME280;52002;49.760;6.512;2023-07-13T03:50:10;100099.31;;;16.30;62.84
65394;BME280;52002;49.760;6.512;2023-07-13T03:52:35;100105.04;;;16.27;62.99
65394;BME280;52002;49.760;6.512;2023-07-13T03:55:01;100107.04;;;16.27;63.10
65394;BME280;52002;49.760;6.512;2023-07-13T03:57:27;100106.50;;;16.27;63.29
65394;BME280;52002;49.760;6.512;2023-07-13T03:59:52;100108.76;;;16.28;63.16
65394;BME280;52002;49.760;6.512;2023-07-13T04:02:18;100111.45;;;16.28;63.12
65394;BME280;52002;49.760;6.512;2023-07-13T04:04:43;100115.45;;;16.29;63.14
65394;BME280;52002;49.760;6.512;2023-07-13T04:07:09;100116.86;;;16.29;63.19
65394;BME280;52002;49.760;6.512;2023-07-13T04:09:35;100116.21;;;16.33;63.17
65394;BME280;52002;49.760;6.512;2023-07-13T04:12:00;100116.70;;;16.40;63.26
65394;BME280;52002;49.760;6.512;2023-07-13T04:14:26;100118.27;;;16.47;63.21
65394;BME280;52002;49.760;6.512;2023-07-13T04:16:51;100119.05;;;16.50;62.95
65394;BME280;52002;49.760;6.512;2023-07-13T04:19:17;100118.06;;;16.54;62.73
65394;BME280;52002;49.760;6.512;2023-07-13T04:21:43;100120.41;;;16.57;62.74
65394;BME280;52002;49.760;6.512;2023-07-13T04:24:08;100118.53;;;16.62;62.78
65394;BME280;52002;49.760;6.512;2023-07-13T04:26:34;100127.45;;;16.70;62.74
65394;BME280;52002;49.760;6.512;2023-07-13T04:29:01;100130.00;;;16.77;62.66
65394;BME280;52002;49.760;6.512;2023-07-13T04:31:29;100131.26;;;16.83;62.73
65394;BME280;52002;49.760;6.512;2023-07-13T04:33:54;100127.52;;;16.93;62.51
65394;BME280;52002;49.760;6.512;2023-07-13T04:36:20;100135.37;;;17.02;62.38
65394;BME280;52002;49.760;6.512;2023-07-13T04:38:45;100136.25;;;17.11;62.16
65394;BME280;52002;49.760;6.512;2023-07-13T04:41:12;100132.58;;;17.20;62.06
65394;BME280;52002;49.760;6.512;2023-07-13T04:43:37;100136.74;;;17.27;62.09
65394;BME280;52002;49.760;6.512;2023-07-13T04:46:05;100136.76;;;17.32;61.76
65394;BME280;52002;49.760;6.512;2023-07-13T04:48:31;100140.34;;;17.37;61.64
65394;BME280;52002;49.760;6.512;2023-07-13T04:50:57;100141.75;;;17.42;61.66
65394;BME280;52002;49.760;6.512;2023-07-13T04:53:24;100140.88;;;17.48;61.58
65394;BME280;52002;49.760;6.512;2023-07-13T04:55:49;100141.45;;;17.54;61.45
65394;BME280;52002;49.760;6.512;2023-07-13T04:58:15;100143.86;;;17.56;61.49
65394;BME280;52002;49.760;6.512;2023-07-13T05:00:40;100142.72;;;17.55;61.51
65394;BME280;52002;49.760;6.512;2023-07-13T05:03:06;100144.27;;;17.59;61.59
65394;BME280;52002;49.760;6.512;2023-07-13T05:05:31;100148.55;;;17.64;61.40
65394;BME280;52002;49.760;6.512;2023-07-13T05:07:57;100146.61;;;17.68;61.14
65394;BME280;52002;49.760;6.512;2023-07-13T05:10:22;100154.45;;;17.72;60.99
65394;BME280;52002;49.760;6.512;2023-07-13T05:12:48;100151.13;;;17.73;60.54
65394;BME280;52002;49.760;6.512;2023-07-13T05:15:14;100149.80;;;17.78;60.67
65394;BME280;52002;49.760;6.512;2023-07-13T05:17:40;100146.39;;;17.84;60.62
65394;BME280;52002;49.760;6.512;2023-07-13T05:20:07;100148.92;;;17.92;60.47
65394;BME280;52002;49.760;6.512;2023-07-13T05:22:33;100148.53;;;18.00;60.43
65394;BME280;52002;49.760;6.512;2023-07-13T05:25:04;100142.91;;;18.11;60.20
65394;BME280;52002;49.760;6.512;2023-07-13T05:27:30;100141.79;;;18.24;59.96
65394;BME280;52002;49.760;6.512;2023-07-13T05:29:55;100150.59;;;18.42;59.69
65394;BME280;52002;49.760;6.512;2023-07-13T05:32:21;100154.15;;;19.30;58.42
65394;BME280;52002;49.760;6.512;2023-07-13T05:34:46;100152.78;;;22.13;55.02
65394;BME280;52002;49.760;6.512;2023-07-13T05:37:12;100157.79;;;25.23;50.88
65394;BME280;52002;49.760;6.512;2023-07-13T05:39:37;100160.43;;;27.76;46.72
65394;BME280;52002;49.760;6.512;2023-07-13T05:42:03;100164.42;;;29.91;42.99
65394;BME280;52002;49.760;6.512;2023-07-13T05:44:28;100164.66;;;31.85;40.00
65394;BME280;52002;49.760;6.512;2023-07-13T05:46:54;100167.27;;;33.81;37.00
65394;BME280;52002;49.760;6.512;2023-07-13T05:49:22;100165.44;;;35.66;34.49
65394;BME280;52002;49.760;6.512;2023-07-13T05:51:47;100166.84;;;37.07;32.22
65394;BME280;52002;49.760;6.512;2023-07-13T05:54:13;100168.96;;;37.49;30.51
65394;BME280;52002;49.760;6.512;2023-07-13T05:56:38;100161.73;;;37.98;29.32
65394;BME280;52002;49.760;6.512;2023-07-13T05:59:04;100160.60;;;38.91;27.74
65394;BME280;52002;49.760;6.512;2023-07-13T06:01:30;100164.33;;;39.44;26.97
65394;BME280;52002;49.760;6.512;2023-07-13T06:03:56;100163.31;;;40.57;25.32
65394;BME280;52002;49.760;6.512;2023-07-13T06:06:21;100169.17;;;41.67;23.99
65394;BME280;52002;49.760;6.512;2023-07-13T06:08:47;100166.58;;;42.61;22.78
65394;BME280;52002;49.760;6.512;2023-07-13T06:11:16;100171.83;;;43.55;22.03
65394;BME280;52002;49.760;6.512;2023-07-13T06:13:42;100165.44;;;44.24;20.65
65394;BME280;52002;49.760;6.512;2023-07-13T06:16:08;100163.33;;;44.51;19.82
65394;BME280;52002;49.760;6.512;2023-07-13T06:18:35;100161.81;;;44.59;19.35
65394;BME280;52002;49.760;6.512;2023-07-13T06:21:15;100165.45;;;44.62;18.82
65394;BME280;52002;49.760;6.512;2023-07-13T06:23:41;100165.44;;;44.85;18.32
65394;BME280;52002;49.760;6.512;2023-07-13T06:26:08;100166.73;;;44.93;18.37
65394;BME280;52002;49.760;6.512;2023-07-13T06:28:35;100175.33;;;45.83;17.95
65394;BME280;52002;49.760;6.512;2023-07-13T06:31:01;100173.60;;;46.80;17.18
65394;BME280;52002;49.760;6.512;2023-07-13T06:33:27;100169.05;;;47.74;16.05
65394;BME280;52002;49.760;6.512;2023-07-13T06:35:52;100166.91;;;48.18;15.44
65394;BME280;52002;49.760;6.512;2023-07-13T06:38:20;100165.88;;;48.95;14.94
65394;BME280;52002;49.760;6.512;2023-07-13T06:40:45;100174.05;;;49.71;14.56
65394;BME280;52002;49.760;6.512;2023-07-13T06:43:11;100177.41;;;50.44;14.06
65394;BME280;52002;49.760;6.512;2023-07-13T06:45:44;100178.96;;;50.99;13.54
65394;BME280;52002;49.760;6.512;2023-07-13T06:48:12;100175.82;;;51.53;13.07
65394;BME280;52002;49.760;6.512;2023-07-13T06:50:38;100169.73;;;52.26;12.72
65394;BME280;52002;49.760;6.512;2023-07-13T06:53:03;100175.41;;;53.04;12.16
65394;BME280;52002;49.760;6.512;2023-07-13T06:55:28;100173.23;;;53.72;11.62
65394;BME280;52002;49.760;6.512;2023-07-13T06:57:54;100168.97;;;53.91;11.02
65394;BME280;52002;49.760;6.512;2023-07-13T07:00:19;100170.14;;;54.04;11.13
65394;BME280;52002;49.760;6.512;2023-07-13T07:02:44;100180.27;;;54.27;10.67
65394;BME280;52002;49.760;6.512;2023-07-13T07:05:10;100178.85;;;54.80;10.79
65394;BME280;52002;49.760;6.512;2023-07-13T07:07:35;100182.42;;;55.26;10.17
65394;BME280;52002;49.760;6.512;2023-07-13T07:10:01;100180.31;;;54.84;10.57
65394;BME280;52002;49.760;6.512;2023-07-13T07:12:26;100179.14;;;55.11;9.99
65394;BME280;52002;49.760;6.512;2023-07-13T07:14:51;100178.30;;;55.11;9.88
65394;BME280;52002;49.760;6.512;2023-07-13T07:17:17;100167.76;;;54.44;9.95
65394;BME280;52002;49.760;6.512;2023-07-13T07:19:42;100164.84;;;54.25;10.20
65394;BME280;52002;49.760;6.512;2023-07-13T07:22:07;100169.64;;;53.21;10.28
65394;BME280;52002;49.760;6.512;2023-07-13T07:24:33;100171.33;;;51.85;10.94
65394;BME280;52002;49.760;6.512;2023-07-13T07:26:58;100168.96;;;51.02;11.18
65394;BME280;52002;49.760;6.512;2023-07-13T07:29:24;100169.85;;;50.25;11.44
65394;BME280;52002;49.760;6.512;2023-07-13T07:31:51;100165.40;;;50.46;11.52
65394;BME280;52002;49.760;6.512;2023-07-13T07:34:17;100166.45;;;51.69;11.12
65394;BME280;52002;49.760;6.512;2023-07-13T07:36:42;100166.19;;;53.15;10.52
65394;BME280;52002;49.760;6.512;2023-07-13T07:39:07;100171.03;;;54.77;9.78
65394;BME280;52002;49.760;6.512;2023-07-13T07:41:33;100176.61;;;55.52;9.64
65394;BME280;52002;49.760;6.512;2023-07-13T07:43:58;100171.20;;;56.35;9.17
65394;BME280;52002;49.760;6.512;2023-07-13T07:46:23;100170.88;;;56.53;8.78
65394;BME280;52002;49.760;6.512;2023-07-13T07:48:49;100181.15;;;56.23;8.60
65394;BME280;52002;49.760;6.512;2023-07-13T07:51:14;100171.10;;;55.37;8.71
65394;BME280;52002;49.760;6.512;2023-07-13T07:53:40;100169.17;;;54.05;9.52
65394;BME280;52002;49.760;6.512;2023-07-13T07:56:05;100166.45;;;52.27;9.99
65394;BME280;52002;49.760;6.512;2023-07-13T07:58:31;100167.09;;;50.55;10.70
65394;BME280;52002;49.760;6.512;2023-07-13T08:01:05;100159.23;;;49.27;11.29
65394;BME280;52002;49.760;6.512;2023-07-13T08:03:31;100158.11;;;48.20;11.66
65394;BME280;52002;49.760;6.512;2023-07-13T08:05:57;100149.77;;;48.68;11.61
65394;BME280;52002;49.760;6.512;2023-07-13T08:08:22;100150.45;;;49.15;11.58
65394;BME280;52002;49.760;6.512;2023-07-13T08:10:48;100147.77;;;49.30;11.58
65394;BME280;52002;49.760;6.512;2023-07-13T08:13:13;100150.77;;;49.33;11.49
65394;BME280;52002;49.760;6.512;2023-07-13T08:15:38;100152.82;;;49.05;11.35
65394;BME280;52002;49.760;6.512;2023-07-13T08:18:05;100149.85;;;48.11;11.88
65394;BME280;52002;49.760;6.512;2023-07-13T08:20:31;100150.88;;;46.88;12.60
65394;BME280;52002;49.760;6.512;2023-07-13T08:22:56;100150.00;;;45.77;12.76
65394;BME280;52002;49.760;6.512;2023-07-13T08:25:22;100149.52;;;45.69;12.75
65394;BME280;52002;49.760;6.512;2023-07-13T08:27:48;100149.60;;;45.69;12.86
65394;BME280;52002;49.760;6.512;2023-07-13T08:30:13;100139.81;;;44.83;13.28
65394;BME280;52002;49.760;6.512;2023-07-13T08:32:39;100143.98;;;45.31;13.51
65394;BME280;52002;49.760;6.512;2023-07-13T08:35:05;100144.08;;;46.58;12.76
65394;BME280;52002;49.760;6.512;2023-07-13T08:37:30;100137.82;;;47.23;12.42
65394;BME280;52002;49.760;6.512;2023-07-13T08:39:56;100137.59;;;47.86;12.11
65394;BME280;52002;49.760;6.512;2023-07-13T08:42:39;100133.86;;;48.39;11.79
65394;BME280;52002;49.760;6.512;2023-07-13T08:45:17;100132.56;;;48.99;11.55
65394;BME280;52002;49.760;6.512;2023-07-13T08:47:49;100132.41;;;49.39;11.47
65394;BME280;52002;49.760;6.512;2023-07-13T08:50:19;100127.11;;;49.31;11.20
65394;BME280;52002;49.760;6.512;2023-07-13T08:52:47;100124.89;;;49.02;11.22
65394;BME280;52002;49.760;6.512;2023-07-13T08:55:17;100126.20;;;48.77;11.50
65394;BME280;52002;49.760;6.512;2023-07-13T08:57:46;100118.19;;;48.22;11.61
65394;BME280;52002;49.760;6.512;2023-07-13T09:00:13;100124.08;;;47.23;12.07
65394;BME280;52002;49.760;6.512;2023-07-13T09:02:56;100126.33;;;45.44;13.05
65394;BME280;52002;49.760;6.512;2023-07-13T09:05:37;100120.79;;;43.11;14.16
65394;BME280;52002;49.760;6.512;2023-07-13T09:13:39;100110.69;;;37.88;17.76
65394;BME280;52002;49.760;6.512;2023-07-13T09:16:07;100116.80;;;36.74;18.71
65394;BME280;52002;49.760;6.512;2023-07-13T09:18:44;100118.42;;;35.77;19.84
65394;BME280;52002;49.760;6.512;2023-07-13T09:21:22;100127.77;;;34.76;20.59
65394;BME280;52002;49.760;6.512;2023-07-13T09:23:52;100127.91;;;33.69;21.39
65394;BME280;52002;49.760;6.512;2023-07-13T09:26:23;100125.88;;;32.75;22.19
65394;BME280;52002;49.760;6.512;2023-07-13T09:28:57;100129.77;;;32.05;22.84
65394;BME280;52002;49.760;6.512;2023-07-13T09:31:28;100130.11;;;31.21;23.88
65394;BME280;52002;49.760;6.512;2023-07-13T09:33:59;100127.57;;;30.65;24.65
65394;BME280;52002;49.760;6.512;2023-07-13T09:36:30;100130.42;;;30.20;25.29
65394;BME280;52002;49.760;6.512;2023-07-13T09:39:05;100132.52;;;29.75;25.60
65394;BME280;52002;49.760;6.512;2023-07-13T09:41:47;100127.34;;;29.34;26.15
65394;BME280;52002;49.760;6.512;2023-07-13T09:44:18;100123.48;;;29.04;27.11
65394;BME280;52002;49.760;6.512;2023-07-13T09:46:54;100122.94;;;28.86;27.30
65394;BME280;52002;49.760;6.512;2023-07-13T09:49:29;100128.63;;;28.73;27.64
65394;BME280;52002;49.760;6.512;2023-07-13T09:52:00;100136.91;;;28.64;28.03
65394;BME280;52002;49.760;6.512;2023-07-13T09:54:27;100135.70;;;28.49;28.04
65394;BME280;52002;49.760;6.512;2023-07-13T09:57:00;100134.16;;;28.36;28.23
65394;BME280;52002;49.760;6.512;2023-07-13T09:59:40;100133.91;;;28.33;28.61
65394;BME280;52002;49.760;6.512;2023-07-13T10:05:00;100138.45;;;28.12;28.44
65394;BME280;52002;49.760;6.512;2023-07-13T10:07:29;100141.48;;;27.93;28.54
65394;BME280;52002;49.760;6.512;2023-07-13T10:09:56;100140.77;;;27.90;28.69
65394;BME280;52002;49.760;6.512;2023-07-13T10:12:23;100142.58;;;27.99;29.13
65394;BME280;52002;49.760;6.512;2023-07-13T10:14:54;100143.12;;;28.09;28.75
65394;BME280;52002;49.760;6.512;2023-07-13T10:17:27;100145.42;;;28.06;28.40
65394;BME280;52002;49.760;6.512;2023-07-13T10:19:58;100143.81;;;28.01;28.70
65394;BME280;52002;49.760;6.512;2023-07-13T10:22:36;100145.86;;;28.03;28.70
65394;BME280;52002;49.760;6.512;2023-07-13T10:25:21;100139.23;;;28.13;28.83
65394;BME280;52002;49.760;6.512;2023-07-13T10:27:50;100141.63;;;28.17;28.69
65394;BME280;52002;49.760;6.512;2023-07-13T10:30:22;100143.60;;;28.14;28.82
65394;BME280;52002;49.760;6.512;2023-07-13T10:32:51;100153.87;;;28.11;28.66
65394;BME280;52002;49.760;6.512;2023-07-13T10:35:19;100146.03;;;27.96;28.64
65394;BME280;52002;49.760;6.512;2023-07-13T10:37:56;100146.74;;;27.90;28.95
65394;BME280;52002;49.760;6.512;2023-07-13T10:40:30;100143.02;;;27.88;29.21
65394;BME280;52002;49.760;6.512;2023-07-13T10:43:01;100148.52;;;27.87;29.33
65394;BME280;52002;49.760;6.512;2023-07-13T10:45:29;100152.98;;;27.98;29.19
65394;BME280;52002;49.760;6.512;2023-07-13T10:47:56;100151.44;;;28.08;28.87
65394;BME280;52002;49.760;6.512;2023-07-13T10:50:25;100153.66;;;28.19;29.20
65394;BME280;52002;49.760;6.512;2023-07-13T10:52:55;100152.58;;;28.38;28.82
65394;BME280;52002;49.760;6.512;2023-07-13T11:03:33;100148.98;;;28.86;28.07
65394;BME280;52002;49.760;6.512;2023-07-13T11:08:58;100158.02;;;28.79;27.66
65394;BME280;52002;49.760;6.512;2023-07-13T11:19:08;100158.09;;;29.04;27.06
65394;BME280;52002;49.760;6.512;2023-07-13T11:22:10;100163.73;;;29.01;26.88
65394;BME280;52002;49.760;6.512;2023-07-13T11:30:40;100160.54;;;29.02;26.98
65394;BME280;52002;49.760;6.512;2023-07-13T11:38:27;100172.65;;;28.59;27.60
65394;BME280;52002;49.760;6.512;2023-07-13T11:40:55;100168.61;;;28.49;27.72
65394;BME280;52002;49.760;6.512;2023-07-13T11:43:20;100167.19;;;28.46;28.08
65394;BME280;52002;49.760;6.512;2023-07-13T11:45:49;100166.14;;;28.49;27.97
65394;BME280;52002;49.760;6.512;2023-07-13T11:48:24;100159.37;;;28.56;28.41
65394;BME280;52002;49.760;6.512;2023-07-13T11:50:53;100169.94;;;28.50;27.73
65394;BME280;52002;49.760;6.512;2023-07-13T11:53:19;100173.98;;;28.34;27.71
65394;BME280;52002;49.760;6.512;2023-07-13T11:55:45;100177.61;;;28.23;27.93
65394;BME280;52002;49.760;6.512;2023-07-13T11:58:14;100184.84;;;27.88;28.30
65394;BME280;52002;49.760;6.512;2023-07-13T12:00:41;100186.52;;;27.68;28.59
65394;BME280;52002;49.760;6.512;2023-07-13T12:03:07;100181.49;;;27.48;28.57
65394;BME280;52002;49.760;6.512;2023-07-13T12:05:33;100179.16;;;27.34;28.98
65394;BME280;52002;49.760;6.512;2023-07-13T12:07:58;100171.84;;;27.41;29.42
65394;BME280;52002;49.760;6.512;2023-07-13T12:10:27;100169.03;;;27.50;29.24
65394;BME280;52002;49.760;6.512;2023-07-13T12:13:04;100171.42;;;27.57;29.48
65394;BME280;52002;49.760;6.512;2023-07-13T12:15:38;100172.84;;;27.67;29.45
65394;BME280;52002;49.760;6.512;2023-07-13T12:18:17;100174.89;;;27.77;29.43
65394;BME280;52002;49.760;6.512;2023-07-13T12:20:44;100174.35;;;27.91;29.52
65394;BME280;52002;49.760;6.512;2023-07-13T12:23:23;100171.47;;;28.10;29.43
65394;BME280;52002;49.760;6.512;2023-07-13T12:25:53;100173.65;;;28.29;29.40
65394;BME280;52002;49.760;6.512;2023-07-13T12:28:21;100172.71;;;28.44;29.08
65394;BME280;52002;49.760;6.512;2023-07-13T12:30:48;100167.45;;;28.53;28.51
65394;BME280;52002;49.760;6.512;2023-07-13T12:33:14;100167.46;;;28.49;28.15
65394;BME280;52002;49.760;6.512;2023-07-13T12:35:46;100168.66;;;28.41;28.43
65394;BME280;52002;49.760;6.512;2023-07-13T12:38:12;100167.60;;;28.41;28.36
65394;BME280;52002;49.760;6.512;2023-07-13T12:40:39;100168.11;;;28.49;28.29
65394;BME280;52002;49.760;6.512;2023-07-13T12:43:11;100178.14;;;28.52;27.85
65394;BME280;52002;49.760;6.512;2023-07-13T12:45:37;100198.92;;;28.42;27.26
65394;BME280;52002;49.760;6.512;2023-07-13T12:48:14;100191.92;;;28.22;27.03
65394;BME280;52002;49.760;6.512;2023-07-13T12:50:45;100182.28;;;27.95;27.30
65394;BME280;52002;49.760;6.512;2023-07-13T12:53:15;100188.05;;;27.74;27.62
65394;BME280;52002;49.760;6.512;2023-07-13T12:55:49;100187.99;;;27.52;28.11
65394;BME280;52002;49.760;6.512;2023-07-13T13:00:51;100190.96;;;27.10;29.26
65394;BME280;52002;49.760;6.512;2023-07-13T13:03:40;100189.42;;;26.96;28.98
65394;BME280;52002;49.760;6.512;2023-07-13T13:08:41;100197.10;;;26.91;28.88
65394;BME280;52002;49.760;6.512;2023-07-13T13:11:08;100189.48;;;27.01;29.17
65394;BME280;52002;49.760;6.512;2023-07-13T13:13:34;100194.52;;;27.18;28.97
65394;BME280;52002;49.760;6.512;2023-07-13T13:16:14;100190.36;;;27.26;29.15
65394;BME280;52002;49.760;6.512;2023-07-13T13:18:42;100189.64;;;27.37;29.45
65394;BME280;52002;49.760;6.512;2023-07-13T13:21:09;100191.92;;;27.38;29.32
65394;BME280;52002;49.760;6.512;2023-07-13T13:23:34;100189.42;;;27.34;29.28
65394;BME280;52002;49.760;6.512;2023-07-13T13:26:00;100190.65;;;27.29;29.35
65394;BME280;52002;49.760;6.512;2023-07-13T13:28:26;100191.52;;;27.18;29.25
65394;BME280;52002;49.760;6.512;2023-07-13T13:30:51;100187.46;;;27.12;29.88
65394;BME280;52002;49.760;6.512;2023-07-13T13:33:19;100189.02;;;27.10;29.69
65394;BME280;52002;49.760;6.512;2023-07-13T13:35:46;100187.02;;;27.10;29.89
65394;BME280;52002;49.760;6.512;2023-07-13T13:38:16;100187.41;;;27.10;30.12